createdAt,value
2017-10-13T00:01:35.520Z,99.90
2017-10-13T00:04:03.330Z,99.90
2017-10-13T00:06:30.372Z,99.90
2017-10-13T00:08:57.426Z,99.90
2017-10-13T00:11:24.453Z,99.90
2017-10-13T00:13:51.485Z,99.90
2017-10-13T00:16:19.290Z,99.90
2017-10-13T00:18:46.329Z,99.90
2017-10-13T00:21:13.357Z,99.90
2017-10-13T00:23:41.166Z,99.90
2017-10-13T00:26:08.198Z,99.90
2017-10-13T00:28:35.236Z,99.90
2017-10-13T00:31:02.269Z,99.90
2017-10-13T00:33:30.086Z,99.90
2017-10-13T00:35:57.113Z,99.90
2017-10-13T00:38:24.139Z,99.90
2017-10-13T00:40:51.166Z,99.90
2017-10-13T00:43:18.961Z,99.90
2017-10-13T00:45:46.003Z,99.90
2017-10-13T00:48:13.053Z,99.90
2017-10-13T00:50:40.099Z,99.90
2017-10-13T00:53:07.119Z,99.90
2017-10-13T00:55:34.153Z,99.90
2017-10-13T00:58:01.194Z,99.90
2017-10-13T01:00:28.224Z,99.90
2017-10-13T01:02:55.253Z,99.90
2017-10-13T01:05:22.289Z,99.90
2017-10-13T01:07:49.325Z,99.90
2017-10-13T01:10:17.123Z,99.90
2017-10-13T01:12:44.153Z,99.90
2017-10-13T01:15:11.189Z,99.90
2017-10-13T01:17:38.998Z,99.90
2017-10-13T01:20:06.020Z,99.90
2017-10-13T01:22:33.048Z,99.90
2017-10-13T01:25:00.845Z,99.90
2017-10-13T01:27:27.886Z,99.90
2017-10-13T01:29:54.920Z,99.90
2017-10-13T01:32:22.717Z,99.90
2017-10-13T01:34:49.750Z,99.90
2017-10-13T01:37:16.785Z,99.90
2017-10-13T01:39:44.581Z,99.90
2017-10-13T01:42:11.625Z,99.90
2017-10-13T01:44:38.654Z,99.90
2017-10-13T01:47:05.696Z,99.90
2017-10-13T01:49:32.741Z,99.90
2017-10-13T01:52:00.554Z,99.90
2017-10-13T01:54:27.597Z,99.90
2017-10-13T01:56:54.629Z,99.90
2017-10-13T01:59:21.670Z,99.90
2017-10-13T02:01:48.706Z,99.90
2017-10-13T02:04:15.737Z,99.90
2017-10-13T02:06:43.539Z,99.90
2017-10-13T02:09:10.568Z,99.90
2017-10-13T02:11:37.598Z,99.90
2017-10-13T02:14:05.394Z,99.90
2017-10-13T02:16:32.428Z,99.90
2017-10-13T02:19:00.245Z,99.90
2017-10-13T02:21:27.286Z,99.90
2017-10-13T02:23:54.325Z,99.90
2017-10-13T02:26:21.357Z,99.90
2017-10-13T02:28:48.384Z,99.90
2017-10-13T02:31:16.186Z,99.90
2017-10-13T02:33:43.219Z,99.90
2017-10-13T02:36:10.262Z,99.90
2017-10-13T02:38:37.288Z,99.90
2017-10-13T02:41:05.096Z,99.90
2017-10-13T02:43:32.127Z,99.90
2017-10-13T02:45:59.164Z,99.90
2017-10-13T02:48:26.208Z,99.90
2017-10-13T02:50:54.005Z,99.90
2017-10-13T02:53:21.033Z,99.90
2017-10-13T02:55:48.066Z,99.90
2017-10-13T02:58:15.852Z,99.90
2017-10-13T03:00:42.880Z,99.90
2017-10-13T03:03:10.733Z,99.90
2017-10-13T03:05:37.768Z,99.90
2017-10-13T03:08:04.800Z,99.90
2017-10-13T03:10:31.832Z,99.90
2017-10-13T03:12:58.874Z,99.90
2017-10-13T03:15:25.909Z,99.90
2017-10-13T03:17:52.941Z,99.90
2017-10-13T03:20:20.818Z,99.90
2017-10-13T03:22:47.858Z,99.90
2017-10-13T03:25:15.656Z,99.90
2017-10-13T03:27:42.676Z,99.90
2017-10-13T03:30:10.491Z,99.90
2017-10-13T03:32:37.524Z,99.90
2017-10-13T03:35:04.544Z,99.90
2017-10-13T03:37:31.581Z,99.90
2017-10-13T03:39:59.382Z,99.90
2017-10-13T03:42:26.414Z,99.90
2017-10-13T03:44:53.443Z,99.90
2017-10-13T03:47:21.235Z,99.90
2017-10-13T03:49:48.281Z,99.90
2017-10-13T03:52:15.312Z,99.90
2017-10-13T03:54:43.104Z,99.90
2017-10-13T03:57:10.142Z,99.90
2017-10-13T03:59:37.171Z,99.90
2017-10-13T04:02:04.973Z,99.90
2017-10-13T04:04:32.001Z,99.90
2017-10-13T04:06:59.038Z,99.90
2017-10-13T04:09:26.836Z,99.90
2017-10-13T04:11:53.865Z,99.90
2017-10-13T04:14:20.901Z,99.90
2017-10-13T04:16:48.705Z,99.90
2017-10-13T04:19:15.749Z,99.90
2017-10-13T04:21:42.785Z,99.90
2017-10-13T04:24:09.809Z,99.90
2017-10-13T04:26:37.610Z,99.90
2017-10-13T04:29:04.648Z,99.90
2017-10-13T04:31:31.681Z,99.90
2017-10-13T04:33:58.717Z,99.90
2017-10-13T04:36:26.541Z,99.90
2017-10-13T04:38:53.587Z,99.90
2017-10-13T04:41:20.625Z,99.90
2017-10-13T04:43:47.669Z,99.90
2017-10-13T04:46:14.702Z,99.90
2017-10-13T04:48:41.729Z,99.90
2017-10-13T04:51:09.540Z,99.90
2017-10-13T04:53:36.587Z,99.90
2017-10-13T04:56:03.627Z,99.90
2017-10-13T04:58:30.707Z,99.90
2017-10-13T05:00:57.814Z,99.90
2017-10-13T05:03:24.844Z,99.90
2017-10-13T05:05:52.646Z,99.90
2017-10-13T05:08:19.678Z,99.90
2017-10-13T05:10:46.708Z,99.90
2017-10-13T05:13:13.756Z,99.90
2017-10-13T05:15:41.566Z,99.90
2017-10-13T05:18:08.673Z,99.90
2017-10-13T05:20:35.705Z,99.90
2017-10-13T05:23:03.527Z,99.90
2017-10-13T05:25:30.558Z,99.90
2017-10-13T05:27:57.588Z,99.90
2017-10-13T05:30:24.626Z,99.90
2017-10-13T05:32:52.434Z,99.90
2017-10-13T05:35:19.463Z,99.90
2017-10-13T05:37:46.487Z,99.90
2017-10-13T05:40:14.284Z,99.90
2017-10-13T05:42:41.325Z,99.90
2017-10-13T05:45:08.350Z,99.90
2017-10-13T05:47:36.148Z,99.90
2017-10-13T05:50:03.301Z,99.90
2017-10-13T05:52:30.343Z,99.90
2017-10-13T05:54:57.387Z,99.90
2017-10-13T05:57:24.424Z,99.90
2017-10-13T05:59:51.448Z,99.90
2017-10-13T06:02:18.480Z,99.90
2017-10-13T06:04:45.513Z,99.90
2017-10-13T06:07:12.562Z,99.90
2017-10-13T06:09:39.607Z,99.90
2017-10-13T06:12:06.645Z,99.90
2017-10-13T06:14:33.678Z,99.90
2017-10-13T06:17:00.708Z,99.90
2017-10-13T06:19:28.495Z,99.90
2017-10-13T06:21:55.536Z,99.90
2017-10-13T06:24:22.572Z,99.90
2017-10-13T06:26:49.610Z,99.90
2017-10-13T06:29:17.405Z,99.90
2017-10-13T06:31:44.435Z,99.90
2017-10-13T06:34:11.477Z,99.90
2017-10-13T06:36:38.513Z,99.90
2017-10-13T06:39:06.320Z,99.90
2017-10-13T06:41:33.343Z,99.90
2017-10-13T06:44:01.143Z,99.90
2017-10-13T06:46:28.180Z,99.90
2017-10-13T06:48:55.219Z,99.90
2017-10-13T06:51:22.244Z,99.90
2017-10-13T06:53:50.041Z,99.90
2017-10-13T06:56:17.078Z,99.90
2017-10-13T06:58:44.117Z,99.90
2017-10-13T07:01:11.162Z,99.90
2017-10-13T07:03:38.964Z,99.90
2017-10-13T07:06:05.998Z,99.90
2017-10-13T07:08:33.052Z,99.90
2017-10-13T07:11:00.081Z,99.90
2017-10-13T07:13:27.108Z,99.90
2017-10-13T07:15:54.926Z,99.90
2017-10-13T07:18:21.957Z,99.90
2017-10-13T07:20:49.003Z,99.90
2017-10-13T07:23:16.036Z,99.90
2017-10-13T07:25:43.838Z,99.90
2017-10-13T07:28:10.882Z,99.90
2017-10-13T07:30:37.908Z,99.90
2017-10-13T07:33:04.953Z,99.90
2017-10-13T07:35:31.980Z,99.90
2017-10-13T07:37:59.787Z,99.90
2017-10-13T07:40:26.822Z,99.90
2017-10-13T07:42:53.869Z,99.90
2017-10-13T07:45:20.903Z,99.90
2017-10-13T07:47:48.714Z,98.40
2017-10-13T07:50:15.755Z,98.30
2017-10-13T07:52:42.802Z,99.90
2017-10-13T07:55:09.838Z,99.50
2017-10-13T07:57:36.873Z,99.90
2017-10-13T08:00:03.902Z,99.40
2017-10-13T08:02:31.705Z,99.90
2017-10-13T08:04:58.744Z,99.90
2017-10-13T08:07:25.794Z,99.90
2017-10-13T08:09:52.821Z,99.50
2017-10-13T08:12:20.616Z,98.00
2017-10-13T08:14:47.650Z,97.90
2017-10-13T08:17:14.704Z,99.10
2017-10-13T08:19:41.736Z,99.90
2017-10-13T08:22:09.544Z,99.90
2017-10-13T08:24:36.600Z,99.90
2017-10-13T08:27:03.634Z,99.90
2017-10-13T08:29:31.435Z,99.90
2017-10-13T08:31:59.981Z,99.90
2017-10-13T08:34:27.026Z,99.90
2017-10-13T08:36:54.074Z,99.90
2017-10-13T08:39:21.105Z,99.90
2017-10-13T08:41:48.150Z,99.90
2017-10-13T08:44:15.181Z,99.90
2017-10-13T08:46:42.986Z,99.90
2017-10-13T08:49:10.022Z,99.90
2017-10-13T08:51:37.050Z,99.90
2017-10-13T08:54:04.859Z,99.90
2017-10-13T08:56:31.906Z,99.90
2017-10-13T08:58:58.945Z,99.90
2017-10-13T09:01:25.981Z,99.90
2017-10-13T09:03:53.009Z,99.90
2017-10-13T09:06:20.810Z,99.90
2017-10-13T09:08:47.837Z,99.90
2017-10-13T09:11:14.875Z,99.90
2017-10-13T09:13:42.686Z,99.90
2017-10-13T09:16:09.733Z,99.90
2017-10-13T09:18:36.761Z,99.90
2017-10-13T09:21:03.797Z,99.90
2017-10-13T09:23:30.833Z,99.90
2017-10-13T09:25:57.873Z,99.90
2017-10-13T09:28:25.673Z,99.90
2017-10-13T09:30:52.719Z,99.90
2017-10-13T09:33:19.766Z,99.90
2017-10-13T09:35:46.798Z,99.90
2017-10-13T09:38:14.601Z,99.90
2017-10-13T09:40:41.646Z,99.90
2017-10-13T09:43:08.694Z,99.90
2017-10-13T09:45:35.747Z,99.90
2017-10-13T09:48:02.789Z,99.90
2017-10-13T09:50:29.838Z,99.90
2017-10-13T09:52:56.873Z,99.90
2017-10-13T09:55:23.906Z,99.90
2017-10-13T09:57:51.717Z,99.90
2017-10-13T10:00:18.758Z,99.90
2017-10-13T10:02:45.792Z,99.90
2017-10-13T10:05:12.837Z,99.90
2017-10-13T10:07:39.884Z,99.50
2017-10-13T10:10:06.918Z,99.60
2017-10-13T10:12:33.964Z,99.20
2017-10-13T10:15:01.000Z,99.30
2017-10-13T10:17:28.806Z,99.30
2017-10-13T10:19:55.839Z,99.30
2017-10-13T10:22:22.872Z,98.70
2017-10-13T10:24:50.690Z,98.40
2017-10-13T10:27:17.721Z,98.30
2017-10-13T10:29:44.761Z,98.40
2017-10-13T10:32:11.788Z,98.60
2017-10-13T10:34:38.847Z,98.80
2017-10-13T10:37:05.909Z,98.30
2017-10-13T10:39:32.961Z,99.20
2017-10-13T10:42:00.013Z,98.20
2017-10-13T10:44:27.062Z,97.60
2017-10-13T10:46:54.108Z,97.50
2017-10-13T10:49:21.128Z,97.40
2017-10-13T10:51:48.928Z,98.10
2017-10-13T10:54:15.958Z,98.10
2017-10-13T10:56:42.994Z,97.50
2017-10-13T10:59:10.034Z,97.20
2017-10-13T11:01:37.853Z,97.60
2017-10-13T11:04:04.893Z,97.60
2017-10-13T11:06:31.927Z,97.40
2017-10-13T11:08:58.965Z,97.80
2017-10-13T11:11:26.011Z,97.70
2017-10-13T11:13:53.045Z,98.60
2017-10-13T11:16:20.857Z,98.60
2017-10-13T11:18:47.887Z,98.50
2017-10-13T11:21:14.926Z,98.00
2017-10-13T11:23:41.981Z,97.80
2017-10-13T11:26:09.024Z,98.00
2017-10-13T11:28:36.073Z,97.60
2017-10-13T11:31:03.114Z,98.10
2017-10-13T11:33:30.153Z,98.50
2017-10-13T11:35:57.944Z,97.80
2017-10-13T11:38:24.985Z,97.80
2017-10-13T11:40:52.030Z,98.10
2017-10-13T11:43:19.086Z,97.70
2017-10-13T11:45:46.125Z,98.20
2017-10-13T11:48:13.157Z,96.90
2017-10-13T11:50:40.970Z,97.30
2017-10-13T11:53:08.010Z,97.20
2017-10-13T11:55:35.045Z,97.30
2017-10-13T11:58:02.088Z,97.20
2017-10-13T12:00:29.119Z,98.10
2017-10-13T12:02:56.190Z,96.60
2017-10-13T12:05:23.256Z,97.60
2017-10-13T12:07:50.316Z,97.60
2017-10-13T12:10:17.351Z,97.40
2017-10-13T12:12:44.386Z,97.20
2017-10-13T12:15:11.433Z,95.90
2017-10-13T12:17:38.477Z,97.20
2017-10-13T12:20:05.507Z,96.60
2017-10-13T12:22:33.313Z,97.30
2017-10-13T12:25:00.356Z,97.30
2017-10-13T12:27:27.425Z,96.90
2017-10-13T12:29:54.474Z,95.90
2017-10-13T12:32:21.518Z,96.60
2017-10-13T12:34:48.591Z,96.20
2017-10-13T12:37:15.634Z,96.50
2017-10-13T12:39:42.668Z,96.60
2017-10-13T12:42:09.701Z,96.80
2017-10-13T12:44:36.736Z,97.00
2017-10-13T12:47:03.782Z,96.50
2017-10-13T12:49:30.832Z,95.90
2017-10-13T12:51:57.868Z,95.90
2017-10-13T12:54:24.904Z,96.10
2017-10-13T12:56:52.700Z,95.80
2017-10-13T12:59:19.739Z,95.80
2017-10-13T13:01:46.775Z,95.20
2017-10-13T13:04:13.817Z,95.40
2017-10-13T13:06:41.616Z,96.20
2017-10-13T13:09:08.659Z,96.10
2017-10-13T13:11:35.706Z,95.10
2017-10-13T13:14:02.755Z,95.50
2017-10-13T13:16:29.799Z,96.00
2017-10-13T13:18:56.865Z,95.20
2017-10-13T13:21:23.909Z,95.70
2017-10-13T13:23:50.943Z,94.70
2017-10-13T13:26:17.987Z,95.20
2017-10-13T13:28:45.036Z,95.70
2017-10-13T13:31:12.085Z,95.00
2017-10-13T13:33:39.127Z,94.60
2017-10-13T13:36:06.187Z,95.30
2017-10-13T13:38:33.236Z,95.50
2017-10-13T13:41:00.304Z,95.60
2017-10-13T13:43:27.337Z,95.90
2017-10-13T13:45:54.386Z,95.20
2017-10-13T13:48:21.426Z,95.40
2017-10-13T13:50:48.466Z,95.40
2017-10-13T13:53:15.505Z,95.00
2017-10-13T13:55:43.304Z,94.80
2017-10-13T13:58:10.339Z,94.70
2017-10-13T14:00:37.381Z,93.80
2017-10-13T14:03:04.435Z,93.60
2017-10-13T14:05:31.493Z,94.50
2017-10-13T14:07:58.533Z,93.30
2017-10-13T14:10:25.570Z,93.80
2017-10-13T14:12:52.610Z,94.50
2017-10-13T14:15:19.642Z,94.50
2017-10-13T14:17:46.688Z,93.80
2017-10-13T14:20:13.724Z,93.40
2017-10-13T14:22:40.764Z,93.10
2017-10-13T14:25:07.879Z,94.60
2017-10-13T14:27:34.929Z,94.30
2017-10-13T14:30:01.973Z,93.90
2017-10-13T14:32:29.017Z,93.10
2017-10-13T14:34:56.072Z,92.60
2017-10-13T14:37:23.106Z,93.10
2017-10-13T14:39:50.137Z,92.30
2017-10-13T14:42:17.941Z,91.60
2017-10-13T14:44:45.022Z,91.50
2017-10-13T14:47:12.057Z,91.90
2017-10-13T14:49:39.121Z,92.80
2017-10-13T14:52:06.148Z,92.50
2017-10-13T14:54:33.193Z,92.70
2017-10-13T14:57:00.256Z,92.70
2017-10-13T14:59:27.305Z,93.20
2017-10-13T15:01:54.339Z,93.30
2017-10-13T15:04:21.366Z,93.40
2017-10-13T15:06:48.410Z,93.00
2017-10-13T15:09:15.440Z,93.10
2017-10-13T15:11:43.338Z,93.50
2017-10-13T15:14:10.417Z,93.50
2017-10-13T15:16:37.452Z,93.60
2017-10-13T15:19:04.494Z,92.10
2017-10-13T15:21:31.529Z,94.10
2017-10-13T15:23:58.576Z,93.30
2017-10-13T15:26:31.528Z,98.30
2017-10-13T15:29:05.048Z,96.90
2017-10-13T15:31:37.745Z,96.90
2017-10-13T15:34:10.505Z,98.70
2017-10-13T15:36:38.320Z,99.90
2017-10-13T15:39:10.997Z,99.80
2017-10-13T15:41:43.778Z,96.70
2017-10-13T15:44:16.455Z,93.60
2017-10-13T15:46:49.292Z,97.90
2017-10-13T15:49:22.771Z,94.70
2017-10-13T15:51:55.610Z,94.60
2017-10-13T15:54:22.636Z,96.70
2017-10-13T15:56:50.432Z,96.60
2017-10-13T15:59:17.471Z,96.60
2017-10-13T16:01:44.524Z,96.00
2017-10-13T16:04:11.600Z,96.20
2017-10-13T16:06:38.641Z,96.00
2017-10-13T16:09:05.677Z,96.40
2017-10-13T16:11:32.718Z,96.30
2017-10-13T16:13:59.761Z,96.00
2017-10-13T16:16:26.797Z,96.30
2017-10-13T16:18:53.862Z,95.70
2017-10-13T16:21:20.911Z,94.50
2017-10-13T16:23:47.955Z,95.40
2017-10-13T16:26:14.981Z,95.40
2017-10-13T16:28:42.785Z,95.70
2017-10-13T16:31:09.950Z,95.70
2017-10-13T16:33:36.992Z,95.40
2017-10-13T16:36:04.038Z,95.50
2017-10-13T16:38:31.175Z,95.90
2017-10-13T16:40:59.254Z,95.90
2017-10-13T16:43:26.388Z,95.80
2017-10-13T16:45:53.482Z,95.70
2017-10-13T16:48:20.524Z,95.80
2017-10-13T16:50:47.558Z,95.90
2017-10-13T16:53:14.591Z,96.00
2017-10-13T16:55:41.640Z,96.00
2017-10-13T16:58:08.673Z,96.00
2017-10-13T17:00:35.714Z,96.10
2017-10-13T17:03:03.532Z,96.40
2017-10-13T17:05:30.563Z,96.40
2017-10-13T17:07:57.611Z,96.70
2017-10-13T17:10:24.651Z,96.30
2017-10-13T17:12:51.693Z,96.50
2017-10-13T17:15:18.738Z,97.50
2017-10-13T17:17:45.764Z,98.10
2017-10-13T17:20:13.564Z,98.50
2017-10-13T17:22:40.620Z,98.50
2017-10-13T17:25:07.644Z,98.50
2017-10-13T17:27:34.686Z,97.70
2017-10-13T17:30:02.481Z,97.10
2017-10-13T17:32:29.508Z,97.20
2017-10-13T17:34:56.585Z,97.50
2017-10-13T17:37:23.625Z,97.40
2017-10-13T17:39:50.663Z,96.90
2017-10-13T17:42:17.702Z,96.70
2017-10-13T17:44:44.746Z,97.30
2017-10-13T17:47:11.774Z,97.40
2017-10-13T17:49:39.585Z,97.40
2017-10-13T17:52:06.634Z,97.40
2017-10-13T17:54:33.690Z,97.50
2017-10-13T17:57:00.721Z,97.40
2017-10-13T17:59:27.759Z,97.50
2017-10-13T18:01:54.806Z,97.70
2017-10-13T18:04:21.841Z,97.90
2017-10-13T18:06:49.641Z,97.80
2017-10-13T18:09:16.673Z,97.80
2017-10-13T18:11:43.718Z,98.40
2017-10-13T18:14:10.766Z,98.30
2017-10-13T18:16:37.808Z,98.30
2017-10-13T18:19:05.610Z,99.10
2017-10-13T18:21:32.646Z,99.10
2017-10-13T18:23:59.794Z,98.40
2017-10-13T18:26:26.847Z,98.70
2017-10-13T18:28:53.888Z,98.80
2017-10-13T18:31:20.935Z,98.90
2017-10-13T18:33:47.973Z,99.00
2017-10-13T18:36:15.010Z,99.30
2017-10-13T18:38:42.818Z,99.60
2017-10-13T18:41:09.881Z,99.60
2017-10-13T18:43:36.929Z,99.70
2017-10-13T18:46:03.951Z,99.80
2017-10-13T18:48:30.996Z,99.90
2017-10-13T18:50:58.027Z,99.90
2017-10-13T18:53:25.092Z,99.90
2017-10-13T18:55:52.128Z,99.90
2017-10-13T18:58:19.173Z,99.90
2017-10-13T19:00:46.212Z,99.90
2017-10-13T19:03:14.022Z,99.90
2017-10-13T19:05:41.063Z,99.90
2017-10-13T19:08:08.106Z,99.90
2017-10-13T19:10:35.151Z,99.90
2017-10-13T19:13:02.194Z,99.90
2017-10-13T19:15:29.238Z,99.90
2017-10-13T19:17:56.279Z,99.90
2017-10-13T19:20:23.322Z,99.90
2017-10-13T19:22:51.131Z,99.90
2017-10-13T19:25:18.163Z,99.90
2017-10-13T19:27:45.192Z,99.90
2017-10-13T19:30:12.992Z,99.90
2017-10-13T19:32:40.035Z,99.90
2017-10-13T19:35:07.077Z,99.90
2017-10-13T19:37:34.109Z,99.90
2017-10-13T19:40:01.158Z,99.90
2017-10-13T19:42:28.205Z,99.90
2017-10-13T19:44:55.270Z,99.90
2017-10-13T19:47:22.305Z,99.90
2017-10-13T19:49:49.344Z,99.90
2017-10-13T19:52:17.151Z,99.90
2017-10-13T19:54:44.253Z,99.90
2017-10-13T19:57:12.067Z,99.90
2017-10-13T19:59:39.102Z,99.90
2017-10-13T20:02:06.145Z,99.90
2017-10-13T20:04:33.205Z,99.90
2017-10-13T20:07:00.245Z,99.90
2017-10-13T20:09:27.283Z,99.90
2017-10-13T20:11:54.333Z,99.90
2017-10-13T20:14:21.377Z,99.90
2017-10-13T20:16:48.421Z,99.90
2017-10-13T20:19:15.462Z,99.90
2017-10-13T20:21:43.262Z,99.90
2017-10-13T20:24:10.293Z,99.90
2017-10-13T20:26:37.322Z,99.90
2017-10-13T20:29:05.116Z,99.90
2017-10-13T20:31:32.159Z,99.90
2017-10-13T20:33:59.197Z,99.90
2017-10-13T20:36:27.076Z,99.90
2017-10-13T20:38:54.113Z,99.90
2017-10-13T20:41:21.149Z,99.90
2017-10-13T20:43:48.958Z,99.90
2017-10-13T20:46:15.994Z,99.90
2017-10-13T20:48:43.053Z,99.90
2017-10-13T20:51:10.093Z,99.90
2017-10-13T20:53:37.136Z,99.90
2017-10-13T20:56:04.164Z,99.90
2017-10-13T20:58:31.964Z,99.90
2017-10-13T21:00:59.042Z,99.90
2017-10-13T21:03:26.070Z,99.90
2017-10-13T21:05:53.099Z,99.90
2017-10-13T21:08:20.131Z,99.90
2017-10-13T21:10:47.160Z,99.90
2017-10-13T21:13:14.965Z,99.90
2017-10-13T21:15:41.997Z,99.90
2017-10-13T21:18:09.036Z,99.90
2017-10-13T21:20:36.842Z,99.90
2017-10-13T21:23:03.884Z,99.90
2017-10-13T21:25:30.912Z,99.90
2017-10-13T21:27:57.945Z,99.90
2017-10-13T21:30:24.996Z,99.90
2017-10-13T21:32:52.794Z,99.90
2017-10-13T21:35:19.829Z,99.90
2017-10-13T21:37:46.878Z,99.90
2017-10-13T21:40:13.912Z,99.90
2017-10-13T21:42:40.956Z,99.90
2017-10-13T21:45:08.766Z,99.90
2017-10-13T21:47:35.804Z,99.90
2017-10-13T21:50:02.841Z,99.90
2017-10-13T21:52:29.878Z,99.90
2017-10-13T21:54:56.921Z,99.90
2017-10-13T21:57:24.034Z,99.90
2017-10-13T21:59:51.074Z,99.90
2017-10-13T22:02:18.106Z,99.90
2017-10-13T22:04:45.158Z,99.90
2017-10-13T22:07:12.718Z,99.90
2017-10-13T22:09:39.752Z,99.90
2017-10-13T22:12:07.214Z,99.90
2017-10-13T22:14:34.241Z,99.90
2017-10-13T22:17:01.272Z,99.90
2017-10-13T22:19:29.079Z,99.90
2017-10-13T22:21:56.126Z,99.90
2017-10-13T22:24:23.157Z,99.90
2017-10-13T22:26:50.189Z,99.90
2017-10-13T22:29:17.981Z,99.90
2017-10-13T22:31:45.009Z,99.90
2017-10-13T22:34:12.037Z,99.90
2017-10-13T22:36:39.832Z,99.90
2017-10-13T22:39:06.868Z,99.90
2017-10-13T22:41:33.901Z,99.90
2017-10-13T22:44:01.706Z,99.90
2017-10-13T22:46:28.738Z,99.90
2017-10-13T22:48:55.763Z,99.90
2017-10-13T22:51:23.578Z,99.90
2017-10-13T22:53:50.602Z,99.90
2017-10-13T22:56:17.636Z,99.90
2017-10-13T22:58:45.433Z,99.90
2017-10-13T23:01:12.484Z,99.90
2017-10-13T23:03:39.522Z,99.90
2017-10-13T23:06:06.582Z,99.90
2017-10-13T23:08:33.607Z,99.90
2017-10-13T23:11:00.637Z,99.90
2017-10-13T23:13:28.436Z,99.90
2017-10-13T23:15:55.460Z,99.90
2017-10-13T23:18:23.255Z,99.90
2017-10-13T23:20:50.304Z,99.90
2017-10-13T23:23:17.332Z,99.90
2017-10-13T23:25:44.373Z,99.90
2017-10-13T23:28:12.169Z,99.90
2017-10-13T23:30:39.218Z,99.90
2017-10-13T23:33:06.253Z,99.90
2017-10-13T23:35:33.284Z,99.90
2017-10-13T23:38:01.085Z,99.90
2017-10-13T23:40:28.162Z,99.90
2017-10-13T23:42:55.250Z,99.90
2017-10-13T23:45:23.054Z,99.90
2017-10-13T23:47:50.082Z,99.90
2017-10-13T23:50:17.119Z,99.90
2017-10-13T23:52:44.170Z,99.90
2017-10-13T23:55:11.206Z,99.90
2017-10-13T23:57:39.013Z,99.90
